createdAt,value
2018-08-16T00:00:16.820Z,19.00
2018-08-16T00:02:50.093Z,19.00
2018-08-16T00:05:23.435Z,19.00
2018-08-16T00:07:56.232Z,19.00
2018-08-16T00:10:28.775Z,19.00
2018-08-16T00:13:01.693Z,18.90
2018-08-16T00:15:34.166Z,19.00
2018-08-16T00:18:06.707Z,18.90
2018-08-16T00:20:39.168Z,18.90
2018-08-16T00:23:12.094Z,18.90
2018-08-16T00:25:44.817Z,18.90
2018-08-16T00:28:17.538Z,18.90
2018-08-16T00:30:50.007Z,18.90
2018-08-16T00:33:22.701Z,18.80
2018-08-16T00:35:55.095Z,18.80
2018-08-16T00:38:28.108Z,18.80
2018-08-16T00:41:00.740Z,18.90
2018-08-16T00:43:33.464Z,18.90
2018-08-16T00:46:06.187Z,18.90
2018-08-16T00:48:38.639Z,18.70
2018-08-16T00:51:11.060Z,18.70
2018-08-16T00:53:43.479Z,18.70
2018-08-16T00:56:15.893Z,18.80
2018-08-16T00:58:48.328Z,18.70
2018-08-16T01:01:20.742Z,18.70
2018-08-16T01:03:53.255Z,18.70
2018-08-16T01:06:25.650Z,18.70
2018-08-16T01:08:58.162Z,18.60
2018-08-16T01:11:30.590Z,18.70
2018-08-16T01:14:03.586Z,18.70
2018-08-16T01:16:36.118Z,18.80
2018-08-16T01:19:08.503Z,18.80
2018-08-16T01:21:40.940Z,18.70
2018-08-16T01:24:13.354Z,18.70
2018-08-16T01:26:45.867Z,18.70
2018-08-16T01:29:19.595Z,18.70
2018-08-16T01:31:52.032Z,18.70
2018-08-16T01:34:24.517Z,18.70
2018-08-16T01:36:57.177Z,18.70
2018-08-16T01:39:29.590Z,18.70
2018-08-16T01:42:02.062Z,18.60
2018-08-16T01:44:34.437Z,18.60
2018-08-16T01:47:06.960Z,18.50
2018-08-16T01:49:39.399Z,18.50
2018-08-16T01:52:11.818Z,18.50
2018-08-16T01:54:44.199Z,18.50
2018-08-16T01:57:16.847Z,18.60
2018-08-16T02:02:21.628Z,18.40
2018-08-16T02:04:54.031Z,18.40
2018-08-16T02:07:26.487Z,18.50
2018-08-16T02:09:58.975Z,18.50
2018-08-16T02:12:31.373Z,18.50
2018-08-16T02:15:06.182Z,18.40
2018-08-16T02:17:38.693Z,18.50
2018-08-16T02:20:12.833Z,18.40
2018-08-16T02:22:45.243Z,18.40
2018-08-16T02:25:17.655Z,18.40
2018-08-16T02:27:50.128Z,18.30
2018-08-16T02:30:22.558Z,18.30
2018-08-16T02:32:55.011Z,18.30
2018-08-16T02:35:27.444Z,18.30
2018-08-16T02:37:59.833Z,18.30
2018-08-16T02:40:32.296Z,18.20
2018-08-16T02:43:04.685Z,18.20
2018-08-16T02:45:37.080Z,18.20
2018-08-16T02:48:09.532Z,18.20
2018-08-16T02:50:41.946Z,18.20
2018-08-16T02:53:14.464Z,18.20
2018-08-16T02:55:46.927Z,18.20
2018-08-16T02:58:19.516Z,18.20
2018-08-16T03:00:51.993Z,18.20
2018-08-16T03:03:24.398Z,18.10
2018-08-16T03:05:56.823Z,18.10
2018-08-16T03:08:29.272Z,18.10
2018-08-16T03:11:01.768Z,18.10
2018-08-16T03:13:34.170Z,18.10
2018-08-16T03:16:06.787Z,18.10
2018-08-16T03:18:39.218Z,18.10
2018-08-16T03:21:11.623Z,18.10
2018-08-16T03:23:44.068Z,18.10
2018-08-16T03:26:16.494Z,18.00
2018-08-16T03:28:48.895Z,18.00
2018-08-16T03:31:23.995Z,18.00
2018-08-16T03:33:56.407Z,17.90
2018-08-16T03:36:28.841Z,17.90
2018-08-16T03:39:01.287Z,17.90
2018-08-16T03:41:33.807Z,17.90
2018-08-16T03:44:06.875Z,17.90
2018-08-16T03:49:11.748Z,17.90
2018-08-16T03:51:44.261Z,17.80
2018-08-16T03:54:16.687Z,17.80
2018-08-16T03:56:49.116Z,17.90
2018-08-16T03:59:21.589Z,17.80
2018-08-16T04:01:54.050Z,17.90
2018-08-16T04:04:26.483Z,17.80
2018-08-16T04:06:58.919Z,17.90
2018-08-16T04:09:31.272Z,17.90
2018-08-16T04:12:04.228Z,17.90
2018-08-16T04:14:36.678Z,17.90
2018-08-16T04:17:09.102Z,17.90
2018-08-16T04:19:42.212Z,18.00
2018-08-16T04:22:14.578Z,17.90
2018-08-16T04:24:46.982Z,18.00
2018-08-16T04:27:19.375Z,18.00
2018-08-16T04:29:51.762Z,18.00
2018-08-16T04:32:24.390Z,18.00
2018-08-16T04:34:57.104Z,18.10
2018-08-16T04:37:29.486Z,18.10
2018-08-16T04:40:01.969Z,18.10
2018-08-16T04:42:34.364Z,18.20
2018-08-16T04:45:07.610Z,18.20
2018-08-16T04:47:39.970Z,18.20
2018-08-16T04:50:12.935Z,18.20
2018-08-16T04:52:46.327Z,18.20
2018-08-16T04:55:18.842Z,18.30
2018-08-16T04:57:51.319Z,18.30
2018-08-16T05:02:56.141Z,18.50
2018-08-16T05:05:28.567Z,18.50
2018-08-16T05:08:00.969Z,18.60
2018-08-16T05:10:33.574Z,18.60
2018-08-16T05:13:05.994Z,18.70
2018-08-16T05:15:38.704Z,18.80
2018-08-16T05:18:11.109Z,18.80
2018-08-16T05:20:43.552Z,18.90
2018-08-16T05:23:15.983Z,19.10
2018-08-16T05:25:48.404Z,19.10
2018-08-16T05:28:20.824Z,19.30
2018-08-16T05:30:53.216Z,19.30
2018-08-16T05:33:25.686Z,19.40
2018-08-16T05:35:58.075Z,19.60
2018-08-16T05:38:30.619Z,19.70
2018-08-16T05:41:03.099Z,19.80
2018-08-16T05:43:35.703Z,19.80
2018-08-16T05:46:08.489Z,19.90
2018-08-16T05:48:40.945Z,20.00
2018-08-16T05:51:13.395Z,20.10
2018-08-16T05:53:47.093Z,20.10
2018-08-16T05:56:19.465Z,20.20
2018-08-16T05:58:51.943Z,20.20
2018-08-16T06:01:24.466Z,20.30
2018-08-16T06:03:56.915Z,20.40
2018-08-16T06:06:29.367Z,20.40
2018-08-16T06:09:01.829Z,20.40
2018-08-16T06:11:34.453Z,20.50
2018-08-16T06:14:08.442Z,20.50
2018-08-16T06:16:40.883Z,20.60
2018-08-16T06:19:13.357Z,20.60
2018-08-16T06:21:45.811Z,20.70
2018-08-16T06:24:18.448Z,20.80
2018-08-16T06:26:50.988Z,20.80
2018-08-16T06:29:23.460Z,20.80
2018-08-16T06:31:55.943Z,20.90
2018-08-16T06:34:28.466Z,20.90
2018-08-16T06:37:00.963Z,21.00
2018-08-16T06:39:33.604Z,20.90
2018-08-16T06:42:06.312Z,21.00
2018-08-16T06:44:38.848Z,21.10
2018-08-16T06:47:14.765Z,21.10
2018-08-16T06:49:47.373Z,21.20
2018-08-16T06:52:20.548Z,21.20
2018-08-16T06:54:53.227Z,21.30
2018-08-16T06:57:25.877Z,21.40
2018-08-16T06:59:58.450Z,21.50
2018-08-16T07:02:31.096Z,21.60
2018-08-16T07:05:04.378Z,21.60
2018-08-16T07:07:37.398Z,21.60
2018-08-16T07:10:11.383Z,21.70
2018-08-16T07:12:43.899Z,21.60
2018-08-16T07:15:16.363Z,21.70
2018-08-16T07:17:48.967Z,21.70
2018-08-16T07:20:21.436Z,21.70
2018-08-16T07:22:54.017Z,21.70
2018-08-16T07:25:26.479Z,21.80
2018-08-16T07:27:58.944Z,21.80
2018-08-16T07:30:31.594Z,21.90
2018-08-16T07:33:04.211Z,22.00
2018-08-16T07:35:36.651Z,22.00
2018-08-16T07:38:09.130Z,22.10
2018-08-16T07:40:41.857Z,22.10
2018-08-16T07:43:14.337Z,22.10
2018-08-16T07:45:47.143Z,22.10
2018-08-16T07:48:19.591Z,22.20
2018-08-16T07:50:52.171Z,22.20
2018-08-16T07:53:24.568Z,22.30
2018-08-16T07:55:57.117Z,22.40
2018-08-16T07:58:29.877Z,22.40
2018-08-16T08:01:02.226Z,22.40
2018-08-16T08:03:34.753Z,22.40
2018-08-16T08:06:07.349Z,22.50
2018-08-16T08:08:39.880Z,22.50
2018-08-16T08:11:12.368Z,22.60
2018-08-16T08:13:44.876Z,22.60
2018-08-16T08:16:19.445Z,22.70
2018-08-16T08:18:51.947Z,22.80
2018-08-16T08:21:24.795Z,22.80
2018-08-16T08:23:58.427Z,22.90
2018-08-16T08:26:30.969Z,22.90
2018-08-16T08:31:36.175Z,23.10
2018-08-16T08:34:08.700Z,23.10
2018-08-16T08:36:52.602Z,23.20
2018-08-16T08:39:25.334Z,23.20
2018-08-16T08:41:57.789Z,23.30
2018-08-16T08:44:30.285Z,23.50
2018-08-16T08:47:02.828Z,23.40
2018-08-16T08:49:35.911Z,23.40
2018-08-16T08:52:08.638Z,23.50
2018-08-16T08:54:53.567Z,23.60
2018-08-16T09:00:06.538Z,23.70
2018-08-16T09:02:39.002Z,23.80
2018-08-16T09:05:11.415Z,23.80
2018-08-16T09:07:43.968Z,23.80
2018-08-16T09:10:53.291Z,23.80
2018-08-16T09:13:38.149Z,23.90
2018-08-16T09:16:13.219Z,23.90
2018-08-16T09:18:46.025Z,23.80
2018-08-16T09:21:18.608Z,23.90
2018-08-16T09:23:51.427Z,24.10
2018-08-16T09:26:29.647Z,24.10
2018-08-16T09:29:06.613Z,24.30
2018-08-16T09:31:50.687Z,24.40
2018-08-16T09:34:24.634Z,24.50
2018-08-16T09:36:57.304Z,24.60
2018-08-16T09:39:29.987Z,24.50
2018-08-16T09:42:02.507Z,24.50
2018-08-16T09:44:35.126Z,24.60
2018-08-16T09:47:19.180Z,24.60
2018-08-16T09:49:52.212Z,24.60
2018-08-16T09:52:25.222Z,24.80
2018-08-16T09:54:58.086Z,24.90
2018-08-16T09:57:30.888Z,25.00
2018-08-16T10:00:03.830Z,25.00
2018-08-16T10:02:36.447Z,25.10
2018-08-16T10:05:09.167Z,25.20
2018-08-16T10:07:41.782Z,25.30
2018-08-16T10:10:14.444Z,25.50
2018-08-16T10:12:47.383Z,25.50
2018-08-16T10:15:20.167Z,25.50
2018-08-16T10:17:53.072Z,25.60
2018-08-16T10:20:25.936Z,25.70
2018-08-16T10:22:58.473Z,25.90
2018-08-16T10:25:31.254Z,25.80
2018-08-16T10:28:04.504Z,25.70
2018-08-16T10:30:37.676Z,25.90
2018-08-16T10:33:10.201Z,26.00
2018-08-16T10:35:43.217Z,26.10
2018-08-16T10:38:15.920Z,25.80
2018-08-16T10:40:48.576Z,26.00
2018-08-16T10:43:21.529Z,26.00
2018-08-16T10:45:54.224Z,26.10
2018-08-16T10:48:27.189Z,26.30
2018-08-16T10:51:00.058Z,26.40
2018-08-16T10:53:33.476Z,26.50
2018-08-16T10:56:06.084Z,26.30
2018-08-16T10:58:40.408Z,26.40
2018-08-16T11:01:13.598Z,26.60
2018-08-16T11:03:46.261Z,26.80
2018-08-16T11:06:21.612Z,26.80
2018-08-16T11:08:54.412Z,26.90
2018-08-16T11:11:26.978Z,26.90
2018-08-16T11:13:59.598Z,27.10
2018-08-16T11:16:32.244Z,27.20
2018-08-16T11:19:06.735Z,27.30
2018-08-16T11:21:39.920Z,27.40
2018-08-16T11:24:13.295Z,27.40
2018-08-16T11:26:45.952Z,27.50
2018-08-16T11:29:18.580Z,27.60
2018-08-16T11:31:51.315Z,27.60
2018-08-16T11:34:23.862Z,27.50
2018-08-16T11:36:56.469Z,27.50
2018-08-16T11:39:29.267Z,27.60
2018-08-16T11:42:03.150Z,27.60
2018-08-16T11:44:35.723Z,27.60
2018-08-16T11:47:08.346Z,27.60
2018-08-16T11:49:41.376Z,27.80
2018-08-16T11:52:14.068Z,27.60
2018-08-16T11:54:47.367Z,27.70
2018-08-16T11:57:20.084Z,27.80
2018-08-16T11:59:53.495Z,28.10
2018-08-16T12:02:26.415Z,28.10
2018-08-16T12:04:59.185Z,28.00
2018-08-16T12:07:31.879Z,27.80
2018-08-16T12:10:05.792Z,27.80
2018-08-16T12:12:38.367Z,27.90
2018-08-16T12:15:11.187Z,27.90
2018-08-16T12:17:43.910Z,27.90
2018-08-16T12:20:16.611Z,28.20
2018-08-16T12:22:49.230Z,28.10
2018-08-16T12:25:22.868Z,28.20
2018-08-16T12:27:55.601Z,28.10
2018-08-16T12:30:28.263Z,28.30
2018-08-16T12:33:01.339Z,28.30
2018-08-16T12:35:33.890Z,28.30
2018-08-16T12:38:06.386Z,28.40
2018-08-16T12:40:39.075Z,28.50
2018-08-16T12:43:11.776Z,28.70
2018-08-16T12:45:44.373Z,28.50
2018-08-16T12:48:17.157Z,28.50
2018-08-16T12:50:49.832Z,28.50
2018-08-16T12:53:22.411Z,28.40
2018-08-16T12:55:55.924Z,28.30
2018-08-16T12:58:28.994Z,28.30
2018-08-16T13:01:01.811Z,28.60
2018-08-16T13:03:34.432Z,28.70
2018-08-16T13:06:06.936Z,28.40
2018-08-16T13:08:39.409Z,28.50
2018-08-16T13:11:12.184Z,28.70
2018-08-16T13:16:42.371Z,28.80
2018-08-16T13:19:18.910Z,28.70
2018-08-16T13:21:58.289Z,28.60
2018-08-16T13:24:33.366Z,28.60
2018-08-16T13:27:06.288Z,28.70
2018-08-16T13:29:39.002Z,28.60
2018-08-16T13:32:11.815Z,28.60
2018-08-16T13:34:49.839Z,28.80
2018-08-16T13:37:22.652Z,28.90
2018-08-16T13:39:55.414Z,29.00
2018-08-16T13:42:28.118Z,29.10
2018-08-16T13:45:00.739Z,29.10
2018-08-16T13:47:33.490Z,29.10
2018-08-16T13:50:06.483Z,29.10
2018-08-16T13:52:39.050Z,29.20
2018-08-16T13:55:11.758Z,29.30
2018-08-16T13:57:44.298Z,29.10
2018-08-16T14:00:17.026Z,29.10
2018-08-16T14:02:49.592Z,29.30
2018-08-16T14:05:23.126Z,29.20
2018-08-16T14:07:56.102Z,29.20
2018-08-16T14:10:28.699Z,29.20
2018-08-16T14:13:01.311Z,28.90
2018-08-16T14:15:33.932Z,29.10
2018-08-16T14:18:06.439Z,29.20
2018-08-16T14:20:39.325Z,29.10
2018-08-16T14:23:11.722Z,29.10
2018-08-16T14:25:44.170Z,29.10
2018-08-16T14:28:16.763Z,29.10
2018-08-16T14:30:49.212Z,29.20
2018-08-16T14:33:21.657Z,29.10
2018-08-16T14:35:54.113Z,29.00
2018-08-16T14:38:26.523Z,29.00
2018-08-16T14:40:58.975Z,29.00
2018-08-16T14:43:31.539Z,29.00
2018-08-16T14:46:04.080Z,29.10
2018-08-16T14:48:36.561Z,29.20
2018-08-16T14:51:09.088Z,29.10
2018-08-16T14:53:41.901Z,29.00
2018-08-16T14:56:14.475Z,29.00
2018-08-16T14:58:47.006Z,29.00
2018-08-16T15:01:19.694Z,29.10
2018-08-16T15:03:52.299Z,29.20
2018-08-16T15:06:24.900Z,29.20
2018-08-16T15:08:57.331Z,29.10
2018-08-16T15:11:29.734Z,29.10
2018-08-16T15:14:02.277Z,29.10
2018-08-16T15:16:34.889Z,29.10
2018-08-16T15:19:07.588Z,29.00
2018-08-16T15:21:40.141Z,28.90
2018-08-16T15:24:15.704Z,28.90
2018-08-16T15:26:48.780Z,28.90
2018-08-16T15:29:21.376Z,28.90
2018-08-16T15:31:53.786Z,28.80
2018-08-16T15:34:26.290Z,28.80
2018-08-16T15:36:58.776Z,28.60
2018-08-16T15:39:31.313Z,28.60
2018-08-16T15:42:03.847Z,28.60
2018-08-16T15:44:36.413Z,28.60
2018-08-16T15:47:09.189Z,28.60
2018-08-16T15:49:41.663Z,28.60
2018-08-16T15:52:14.120Z,28.60
2018-08-16T15:54:46.564Z,28.60
2018-08-16T15:57:19.182Z,28.60
2018-08-16T15:59:51.612Z,28.70
2018-08-16T16:02:24.344Z,28.60
2018-08-16T16:04:56.735Z,28.70
2018-08-16T16:07:30.716Z,28.60
2018-08-16T16:10:04.135Z,28.50
2018-08-16T16:12:36.588Z,28.50
2018-08-16T16:15:09.498Z,28.60
2018-08-16T16:17:42.010Z,28.50
2018-08-16T16:20:14.442Z,28.50
2018-08-16T16:22:46.855Z,28.40
2018-08-16T16:25:19.297Z,28.40
2018-08-16T16:27:51.822Z,28.50
2018-08-16T16:30:24.259Z,28.40
2018-08-16T16:32:56.692Z,28.50
2018-08-16T16:35:29.142Z,28.50
2018-08-16T16:38:01.559Z,28.40
2018-08-16T16:40:35.609Z,28.30
2018-08-16T16:43:08.080Z,28.20
2018-08-16T16:45:40.531Z,28.20
2018-08-16T16:48:13.012Z,28.10
2018-08-16T16:50:45.476Z,28.10
2018-08-16T16:53:18.454Z,28.10
2018-08-16T16:55:51.017Z,28.10
2018-08-16T16:58:23.522Z,28.00
2018-08-16T17:00:56.655Z,27.90
2018-08-16T17:03:29.135Z,27.90
2018-08-16T17:06:01.589Z,27.80
2018-08-16T17:08:34.207Z,27.70
2018-08-16T17:11:06.625Z,27.70
2018-08-16T17:13:39.158Z,27.70
2018-08-16T17:16:11.641Z,27.60
2018-08-16T17:18:44.192Z,27.60
2018-08-16T17:21:17.207Z,27.50
2018-08-16T17:23:50.376Z,27.50
2018-08-16T17:26:22.839Z,27.40
2018-08-16T17:28:55.355Z,27.30
2018-08-16T17:31:27.797Z,27.30
2018-08-16T17:34:00.458Z,27.20
2018-08-16T17:36:34.629Z,27.20
2018-08-16T17:39:07.116Z,27.10
2018-08-16T17:41:39.862Z,26.90
2018-08-16T17:44:12.436Z,26.90
2018-08-16T17:46:45.227Z,26.90
2018-08-16T17:49:19.434Z,26.80
2018-08-16T17:51:52.163Z,26.70
2018-08-16T17:54:24.953Z,26.70
2018-08-16T17:56:57.804Z,26.60
2018-08-16T17:59:30.319Z,26.50
2018-08-16T18:02:02.767Z,26.50
2018-08-16T18:04:35.259Z,26.50
2018-08-16T18:07:07.938Z,26.40
2018-08-16T18:09:40.774Z,26.40
2018-08-16T18:12:13.247Z,26.30
2018-08-16T18:14:46.039Z,26.30
2018-08-16T18:17:18.438Z,26.20
2018-08-16T18:19:50.997Z,26.10
2018-08-16T18:22:23.670Z,26.10
2018-08-16T18:24:56.130Z,26.00
2018-08-16T18:27:28.625Z,26.00
2018-08-16T18:30:01.545Z,25.90
2018-08-16T18:32:34.099Z,25.90
2018-08-16T18:35:06.724Z,25.80
2018-08-16T18:37:39.194Z,25.70
2018-08-16T18:40:12.925Z,25.60
2018-08-16T18:42:45.268Z,25.60
2018-08-16T18:45:17.663Z,25.50
2018-08-16T18:47:50.041Z,25.40
2018-08-16T18:50:22.464Z,25.30
2018-08-16T18:52:54.859Z,25.20
2018-08-16T18:55:27.265Z,25.20
2018-08-16T18:57:59.709Z,25.10
2018-08-16T19:00:32.127Z,25.10
2018-08-16T19:03:04.915Z,25.00
2018-08-16T19:05:37.435Z,25.00
2018-08-16T19:08:10.033Z,24.90
2018-08-16T19:10:43.697Z,24.90
2018-08-16T19:13:16.090Z,24.90
2018-08-16T19:15:48.566Z,24.90
2018-08-16T19:18:21.137Z,24.80
2018-08-16T19:20:53.598Z,24.80
2018-08-16T19:23:26.003Z,24.80
2018-08-16T19:25:58.470Z,24.80
2018-08-16T19:28:30.914Z,24.70
2018-08-16T19:31:03.546Z,24.70
2018-08-16T19:33:35.962Z,24.60
2018-08-16T19:38:41.412Z,24.70
2018-08-16T19:43:46.557Z,24.50
2018-08-16T19:46:19.440Z,24.50
2018-08-16T19:48:51.919Z,24.40
2018-08-16T19:51:24.680Z,24.40
2018-08-16T19:53:57.869Z,24.40
2018-08-16T19:56:30.246Z,24.40
2018-08-16T19:59:02.676Z,24.30
2018-08-16T20:01:35.183Z,24.30
2018-08-16T20:04:07.662Z,24.30
2018-08-16T20:06:40.176Z,24.20
2018-08-16T20:09:12.559Z,24.20
2018-08-16T20:11:45.034Z,24.20
2018-08-16T20:14:17.506Z,24.10
2018-08-16T20:16:50.272Z,24.10
2018-08-16T20:19:23.158Z,24.10
2018-08-16T20:21:55.783Z,24.10
2018-08-16T20:24:28.420Z,24.10
2018-08-16T20:27:00.958Z,24.00
2018-08-16T20:29:33.647Z,24.00
2018-08-16T20:32:06.384Z,24.00
2018-08-16T20:34:39.269Z,23.90
2018-08-16T20:37:11.923Z,24.00
2018-08-16T20:39:44.673Z,23.90
2018-08-16T20:42:17.312Z,23.90
2018-08-16T20:44:50.000Z,23.90
2018-08-16T20:47:22.736Z,23.90
2018-08-16T20:49:55.135Z,23.90
2018-08-16T20:52:27.830Z,23.90
2018-08-16T20:55:00.182Z,23.90
2018-08-16T20:57:32.630Z,23.90
2018-08-16T21:00:06.722Z,23.90
2018-08-16T21:02:39.210Z,23.90
2018-08-16T21:07:44.444Z,23.80
2018-08-16T21:10:17.014Z,23.80
2018-08-16T21:12:49.539Z,23.80
2018-08-16T21:15:21.882Z,23.80
2018-08-16T21:17:54.315Z,23.80
2018-08-16T21:20:26.777Z,23.80
2018-08-16T21:22:59.497Z,23.80
2018-08-16T21:25:31.974Z,23.80
2018-08-16T21:28:04.934Z,23.80
2018-08-16T21:30:37.405Z,23.80
2018-08-16T21:33:09.943Z,23.80
2018-08-16T21:35:43.152Z,23.80
2018-08-16T21:38:15.722Z,23.80
2018-08-16T21:40:48.147Z,23.80
2018-08-16T21:43:20.564Z,23.80
2018-08-16T21:45:53.530Z,23.80
2018-08-16T21:48:26.051Z,23.70
2018-08-16T21:50:58.785Z,23.70
2018-08-16T21:53:33.014Z,23.70
2018-08-16T21:56:07.580Z,23.70
2018-08-16T21:58:40.629Z,23.60
2018-08-16T22:01:13.538Z,23.60
2018-08-16T22:03:46.642Z,23.50
2018-08-16T22:06:31.025Z,23.50
2018-08-16T22:09:06.527Z,23.50
2018-08-16T22:11:39.668Z,23.50
2018-08-16T22:14:13.949Z,23.40
2018-08-16T22:16:47.660Z,23.40
2018-08-16T22:19:21.449Z,23.40
2018-08-16T22:21:54.411Z,23.40
2018-08-16T22:24:27.546Z,23.30
2018-08-16T22:27:00.299Z,23.20
2018-08-16T22:29:33.260Z,23.20
2018-08-16T22:32:06.678Z,23.20
2018-08-16T22:34:39.650Z,23.20
2018-08-16T22:37:12.350Z,23.10
2018-08-16T22:39:44.808Z,23.10
2018-08-16T22:42:17.767Z,23.10
2018-08-16T22:44:50.499Z,23.10
2018-08-16T22:49:55.844Z,23.00
2018-08-16T22:52:28.520Z,22.90
2018-08-16T22:55:01.293Z,22.90
2018-08-16T22:57:33.890Z,22.90
2018-08-16T23:00:07.271Z,22.80
2018-08-16T23:02:41.010Z,22.80
2018-08-16T23:05:13.664Z,22.80
2018-08-16T23:07:46.308Z,22.70
2018-08-16T23:10:19.538Z,22.70
2018-08-16T23:12:52.811Z,22.70
2018-08-16T23:15:25.817Z,22.60
2018-08-16T23:17:58.361Z,22.60
2018-08-16T23:20:31.086Z,22.60
2018-08-16T23:23:03.575Z,22.50
2018-08-16T23:25:35.952Z,22.50
2018-08-16T23:28:09.197Z,22.40
2018-08-16T23:30:42.242Z,22.40
2018-08-16T23:33:14.876Z,22.30
2018-08-16T23:35:47.593Z,22.30
2018-08-16T23:38:20.664Z,22.30
2018-08-16T23:40:53.470Z,22.20
2018-08-16T23:43:26.215Z,22.20
2018-08-16T23:45:58.888Z,22.20
2018-08-16T23:48:31.943Z,22.20
2018-08-16T23:51:04.853Z,22.20
2018-08-16T23:53:37.284Z,22.20
2018-08-16T23:56:10.850Z,22.20
2018-08-16T23:58:43.630Z,22.10
